createdAt,value
2024-01-25T00:00:11.313Z,83.65
2024-01-25T00:02:37.706Z,83.51
2024-01-25T00:05:04.596Z,83.64
2024-01-25T00:07:31.081Z,84.37
2024-01-25T00:09:58.997Z,84.27
2024-01-25T00:12:25.617Z,84.48
2024-01-25T00:14:53.743Z,83.86
2024-01-25T00:17:20.133Z,84.10
2024-01-25T00:19:46.580Z,84.13
2024-01-25T00:22:13.181Z,83.96
2024-01-25T00:24:39.852Z,83.54
2024-01-25T00:27:06.299Z,83.95
2024-01-25T00:29:32.722Z,83.74
2024-01-25T00:31:59.211Z,83.48
2024-01-25T00:34:26.051Z,83.85
2024-01-25T00:36:52.779Z,83.86
2024-01-25T00:39:19.376Z,83.55
2024-01-25T00:41:51.608Z,84.34
2024-01-25T00:44:18.794Z,84.60
2024-01-25T00:46:47.939Z,83.49
2024-01-25T00:49:15.341Z,83.71
2024-01-25T00:51:48.112Z,83.43
2024-01-25T00:54:15.895Z,83.65
2024-01-25T00:56:42.595Z,84.22
2024-01-25T00:59:09.407Z,82.63
2024-01-25T01:01:36.243Z,83.69
2024-01-25T01:04:03.260Z,83.30
2024-01-25T01:06:30.211Z,83.59
2024-01-25T01:08:57.287Z,83.33
2024-01-25T01:11:23.761Z,83.94
2024-01-25T01:13:50.160Z,84.04
2024-01-25T01:16:17.261Z,83.84
2024-01-25T01:18:43.829Z,83.96
2024-01-25T01:21:10.389Z,83.42
2024-01-25T01:23:36.760Z,82.87
2024-01-25T01:26:05.080Z,83.15
2024-01-25T01:28:31.493Z,83.23
2024-01-25T01:30:58.024Z,84.03
2024-01-25T01:33:24.777Z,83.80
2024-01-25T01:35:51.498Z,84.00
2024-01-25T01:38:18.217Z,84.06
2024-01-25T01:40:45.891Z,83.45
2024-01-25T01:43:21.231Z,83.95
2024-01-25T01:45:48.018Z,84.67
2024-01-25T01:48:15.101Z,84.40
2024-01-25T01:50:43.640Z,83.81
2024-01-25T01:53:11.487Z,84.71
2024-01-25T01:55:39.209Z,84.56
2024-01-25T01:58:05.912Z,85.39
2024-01-25T02:00:34.335Z,85.37
2024-01-25T02:03:01.493Z,84.89
2024-01-25T02:05:27.869Z,85.14
2024-01-25T02:07:55.378Z,84.54
2024-01-25T02:10:21.957Z,85.08
2024-01-25T02:12:48.391Z,84.70
2024-01-25T02:15:14.756Z,85.29
2024-01-25T02:17:42.450Z,84.37
2024-01-25T02:20:09.704Z,84.60
2024-01-25T02:22:36.194Z,84.64
2024-01-25T02:25:02.681Z,84.89
2024-01-25T02:27:29.163Z,84.94
2024-01-25T02:29:56.012Z,84.99
2024-01-25T02:32:22.906Z,85.22
2024-01-25T02:34:49.455Z,85.58
2024-01-25T02:37:16.356Z,85.60
2024-01-25T02:39:43.093Z,85.60
2024-01-25T02:42:09.637Z,85.84
2024-01-25T02:44:36.066Z,85.63
2024-01-25T02:47:02.570Z,85.31
2024-01-25T02:49:29.333Z,85.22
2024-01-25T02:51:55.874Z,85.84
2024-01-25T02:54:22.444Z,85.72
2024-01-25T02:56:48.812Z,85.48
2024-01-25T02:59:15.274Z,86.13
2024-01-25T03:01:42.957Z,85.36
2024-01-25T03:04:09.870Z,84.89
2024-01-25T03:06:36.589Z,85.34
2024-01-25T03:09:05.630Z,85.13
2024-01-25T03:11:32.683Z,85.33
2024-01-25T03:13:59.399Z,85.34
2024-01-25T03:16:25.889Z,85.10
2024-01-25T03:18:52.453Z,84.98
2024-01-25T03:21:18.972Z,85.66
2024-01-25T03:23:45.855Z,85.46
2024-01-25T03:26:12.229Z,86.00
2024-01-25T03:28:40.364Z,85.39
2024-01-25T03:31:07.518Z,85.47
2024-01-25T03:33:34.206Z,84.59
2024-01-25T03:36:04.874Z,84.88
2024-01-25T03:38:31.443Z,84.89
2024-01-25T03:40:59.699Z,84.78
2024-01-25T03:43:27.610Z,84.53
2024-01-25T03:46:00.049Z,85.70
2024-01-25T03:48:26.623Z,85.29
2024-01-25T03:50:57.170Z,84.30
2024-01-25T03:53:24.411Z,84.63
2024-01-25T03:55:51.051Z,84.21
2024-01-25T03:58:20.757Z,84.63
2024-01-25T04:00:47.418Z,84.41
2024-01-25T04:03:14.512Z,84.50
2024-01-25T04:05:40.994Z,84.88
2024-01-25T04:08:07.594Z,84.46
2024-01-25T04:10:34.440Z,84.38
2024-01-25T04:13:05.856Z,84.73
2024-01-25T04:15:32.381Z,84.44
2024-01-25T04:17:59.097Z,84.05
2024-01-25T04:20:25.880Z,84.24
2024-01-25T04:22:52.356Z,83.82
2024-01-25T04:25:18.800Z,84.91
2024-01-25T04:27:45.358Z,83.88
2024-01-25T04:30:12.004Z,83.85
2024-01-25T04:32:38.538Z,84.18
2024-01-25T04:35:05.417Z,84.10
2024-01-25T04:37:31.931Z,84.32
2024-01-25T04:39:58.355Z,84.62
2024-01-25T04:42:24.822Z,84.60
2024-01-25T04:44:51.204Z,84.54
2024-01-25T04:47:18.042Z,84.21
2024-01-25T04:49:44.546Z,85.10
2024-01-25T04:52:11.284Z,84.53
2024-01-25T04:54:37.838Z,84.90
2024-01-25T04:57:07.630Z,84.88
2024-01-25T04:59:34.602Z,84.53
2024-01-25T05:02:01.618Z,84.73
2024-01-25T05:04:30.607Z,84.61
2024-01-25T05:06:57.340Z,84.47
2024-01-25T05:09:23.897Z,84.33
2024-01-25T05:11:50.356Z,84.47
2024-01-25T05:14:18.344Z,84.54
2024-01-25T05:16:44.751Z,84.76
2024-01-25T05:19:11.363Z,84.24
2024-01-25T05:21:38.258Z,84.96
2024-01-25T05:24:05.205Z,84.94
2024-01-25T05:26:31.575Z,84.93
2024-01-25T05:28:58.078Z,85.02
2024-01-25T05:31:24.586Z,84.56
2024-01-25T05:33:51.143Z,85.59
2024-01-25T05:36:17.678Z,85.01
2024-01-25T05:38:44.142Z,85.04
2024-01-25T05:41:10.489Z,85.29
2024-01-25T05:43:37.277Z,85.08
2024-01-25T05:46:05.108Z,85.21
2024-01-25T05:48:32.275Z,85.69
2024-01-25T05:50:58.906Z,84.98
2024-01-25T05:53:25.442Z,85.19
2024-01-25T05:55:51.837Z,85.18
2024-01-25T05:58:18.314Z,84.81
2024-01-25T06:00:44.917Z,85.19
2024-01-25T06:03:11.970Z,85.25
2024-01-25T06:05:38.847Z,86.09
2024-01-25T06:08:05.567Z,85.41
2024-01-25T06:10:32.243Z,85.11
2024-01-25T06:12:58.756Z,85.88
2024-01-25T06:15:25.233Z,85.12
2024-01-25T06:17:51.701Z,85.89
2024-01-25T06:20:18.671Z,85.59
2024-01-25T06:22:45.368Z,85.62
2024-01-25T06:25:12.002Z,86.03
2024-01-25T06:27:38.631Z,86.13
2024-01-25T06:30:05.628Z,86.26
2024-01-25T06:32:32.394Z,86.05
2024-01-25T06:34:59.449Z,86.41
2024-01-25T06:37:26.046Z,86.28
2024-01-25T06:39:52.519Z,86.71
2024-01-25T06:42:18.957Z,86.51
2024-01-25T06:44:45.663Z,86.77
2024-01-25T06:47:12.200Z,85.98
2024-01-25T06:49:38.795Z,87.46
2024-01-25T06:52:05.813Z,86.72
2024-01-25T06:54:32.410Z,87.47
2024-01-25T06:56:59.222Z,87.83
2024-01-25T06:59:25.725Z,87.19
2024-01-25T07:01:52.814Z,87.74
2024-01-25T07:04:19.806Z,87.85
2024-01-25T07:06:46.967Z,88.07
2024-01-25T07:09:13.693Z,87.92
2024-01-25T07:11:40.085Z,87.33
2024-01-25T07:14:07.197Z,88.12
2024-01-25T07:16:33.922Z,87.59
2024-01-25T07:19:00.508Z,87.84
2024-01-25T07:21:27.514Z,87.41
2024-01-25T07:23:53.977Z,87.30
2024-01-25T07:26:20.372Z,87.86
2024-01-25T07:28:47.448Z,87.31
2024-01-25T07:31:14.180Z,87.75
2024-01-25T07:33:40.898Z,87.99
2024-01-25T07:36:07.634Z,88.42
2024-01-25T07:38:34.159Z,87.80
2024-01-25T07:41:00.585Z,88.31
2024-01-25T07:43:27.141Z,88.09
2024-01-25T07:45:54.970Z,87.75
2024-01-25T07:48:21.903Z,88.07
2024-01-25T07:50:48.722Z,87.79
2024-01-25T07:53:17.244Z,87.85
2024-01-25T07:55:43.960Z,87.72
2024-01-25T07:58:10.454Z,88.58
2024-01-25T08:00:37.146Z,87.88
2024-01-25T08:03:04.295Z,87.87
2024-01-25T08:05:37.597Z,88.18
2024-01-25T08:08:11.395Z,88.16
2024-01-25T08:10:38.039Z,87.80
2024-01-25T08:13:07.472Z,88.76
2024-01-25T08:15:34.987Z,87.99
2024-01-25T08:18:02.039Z,86.94
2024-01-25T08:20:30.314Z,87.71
2024-01-25T08:22:56.797Z,87.43
2024-01-25T08:25:23.379Z,87.65
2024-01-25T08:27:50.450Z,87.17
2024-01-25T08:30:17.034Z,88.27
2024-01-25T08:32:43.874Z,87.28
2024-01-25T08:35:11.398Z,87.80
2024-01-25T08:37:39.243Z,87.68
2024-01-25T08:40:07.326Z,87.54
2024-01-25T08:42:34.029Z,87.69
2024-01-25T08:45:00.724Z,87.28
2024-01-25T08:47:27.104Z,87.18
2024-01-25T08:49:53.957Z,87.14
2024-01-25T08:52:20.532Z,86.86
2024-01-25T08:54:47.022Z,87.10
2024-01-25T08:57:13.591Z,86.83
2024-01-25T08:59:39.958Z,87.25
2024-01-25T09:02:07.335Z,86.38
2024-01-25T09:04:34.237Z,87.23
2024-01-25T09:07:01.404Z,86.42
2024-01-25T09:09:28.022Z,86.95
2024-01-25T09:11:54.985Z,86.85
2024-01-25T09:14:22.301Z,87.09
2024-01-25T09:16:49.602Z,86.78
2024-01-25T09:19:17.042Z,86.73
2024-01-25T09:21:43.943Z,87.07
2024-01-25T09:24:10.844Z,87.79
2024-01-25T09:26:37.241Z,87.63
2024-01-25T09:29:05.847Z,87.95
2024-01-25T09:31:32.504Z,87.95
2024-01-25T09:33:59.469Z,87.74
2024-01-25T09:36:26.188Z,87.61
2024-01-25T09:38:53.149Z,88.02
2024-01-25T09:41:19.660Z,86.89
2024-01-25T09:43:47.376Z,86.95
2024-01-25T09:46:18.474Z,86.88
2024-01-25T09:48:47.605Z,87.05
2024-01-25T09:51:14.831Z,87.15
2024-01-25T09:53:43.054Z,86.55
2024-01-25T09:56:12.048Z,86.54
2024-01-25T09:58:43.529Z,86.49
2024-01-25T10:01:11.971Z,86.77
2024-01-25T10:03:41.291Z,86.80
2024-01-25T10:06:08.896Z,86.29
2024-01-25T10:08:35.889Z,86.42
2024-01-25T10:11:02.370Z,86.29
2024-01-25T10:13:29.359Z,86.71
2024-01-25T10:15:56.750Z,86.03
2024-01-25T10:18:29.487Z,86.40
2024-01-25T10:20:57.331Z,85.80
2024-01-25T10:23:24.479Z,86.08
2024-01-25T10:25:51.222Z,85.68
2024-01-25T10:28:18.740Z,86.02
2024-01-25T10:30:45.579Z,86.02
2024-01-25T10:33:13.070Z,85.77
2024-01-25T10:35:42.909Z,85.66
2024-01-25T10:38:09.638Z,85.91
2024-01-25T10:40:38.037Z,85.73
2024-01-25T10:43:04.873Z,84.84
2024-01-25T10:45:31.530Z,85.26
2024-01-25T10:48:00.604Z,85.56
2024-01-25T10:50:27.443Z,84.59
2024-01-25T10:52:54.735Z,84.70
2024-01-25T10:55:21.705Z,85.20
2024-01-25T10:57:48.548Z,85.09
2024-01-25T11:00:17.584Z,85.02
2024-01-25T11:02:47.487Z,84.55
2024-01-25T11:05:16.227Z,84.29
2024-01-25T11:07:48.404Z,84.30
2024-01-25T11:10:18.255Z,84.31
2024-01-25T11:12:59.698Z,84.65
2024-01-25T11:15:33.587Z,84.52
2024-01-25T11:18:02.281Z,84.30
2024-01-25T11:20:30.648Z,83.92
2024-01-25T11:23:04.012Z,84.34
2024-01-25T11:25:31.822Z,83.79
2024-01-25T11:27:59.251Z,84.23
2024-01-25T11:30:31.438Z,84.09
2024-01-25T11:32:58.132Z,84.27
2024-01-25T11:35:26.556Z,83.51
2024-01-25T11:37:53.883Z,83.04
2024-01-25T11:40:21.476Z,83.54
2024-01-25T11:42:51.762Z,83.79
2024-01-25T11:45:18.685Z,83.00
2024-01-25T11:47:46.010Z,83.72
2024-01-25T11:50:14.027Z,83.16
2024-01-25T11:52:40.842Z,83.29
2024-01-25T11:55:09.851Z,82.83
2024-01-25T11:57:44.788Z,83.31
2024-01-25T12:00:15.545Z,83.30
2024-01-25T12:02:42.610Z,83.56
2024-01-25T12:05:11.647Z,83.69
2024-01-25T12:07:40.617Z,82.73
2024-01-25T12:10:09.640Z,82.84
2024-01-25T12:12:36.667Z,82.81
2024-01-25T12:15:06.270Z,83.07
2024-01-25T12:17:34.179Z,83.03
2024-01-25T12:20:01.291Z,83.03
2024-01-25T12:22:29.343Z,83.46
2024-01-25T12:25:00.403Z,83.08
2024-01-25T12:27:28.213Z,83.59
2024-01-25T12:29:54.984Z,83.04
2024-01-25T12:32:22.199Z,83.66
2024-01-25T12:34:56.415Z,83.92
2024-01-25T12:37:23.445Z,83.00
2024-01-25T12:39:53.015Z,82.98
2024-01-25T12:42:20.869Z,83.94
2024-01-25T12:44:48.305Z,82.88
2024-01-25T12:47:15.587Z,83.48
2024-01-25T12:49:44.203Z,82.68
2024-01-25T12:52:11.954Z,82.60
2024-01-25T12:54:39.071Z,82.95
2024-01-25T12:57:06.628Z,82.19
2024-01-25T12:59:35.340Z,82.43
2024-01-25T13:02:02.246Z,82.59
2024-01-25T13:04:29.027Z,82.44
2024-01-25T13:06:57.038Z,82.73
2024-01-25T13:09:24.903Z,83.25
2024-01-25T13:11:53.346Z,82.90
2024-01-25T13:14:19.733Z,83.42
2024-01-25T13:16:46.531Z,82.51
2024-01-25T13:19:13.209Z,82.39
2024-01-25T13:21:40.275Z,83.00
2024-01-25T13:24:07.866Z,82.10
2024-01-25T13:26:36.616Z,82.35
2024-01-25T13:29:03.118Z,81.96
2024-01-25T13:31:29.624Z,82.12
2024-01-25T13:33:56.197Z,82.03
2024-01-25T13:36:22.880Z,82.01
2024-01-25T13:38:49.372Z,81.14
2024-01-25T13:41:15.791Z,81.91
2024-01-25T13:43:42.147Z,81.47
2024-01-25T13:46:08.576Z,81.52
2024-01-25T13:48:35.408Z,81.28
2024-01-25T13:51:01.917Z,81.31
2024-01-25T13:53:28.316Z,81.07
2024-01-25T13:55:54.714Z,81.21
2024-01-25T13:58:21.159Z,80.14
2024-01-25T14:00:47.785Z,80.47
2024-01-25T14:03:17.139Z,79.66
2024-01-25T14:05:44.007Z,79.70
2024-01-25T14:08:10.439Z,78.48
2024-01-25T14:10:37.527Z,78.55
2024-01-25T14:13:04.528Z,77.64
2024-01-25T14:15:31.401Z,77.32
2024-01-25T14:17:58.079Z,77.09
2024-01-25T14:20:24.531Z,77.44
2024-01-25T14:22:51.155Z,77.31
2024-01-25T14:25:18.023Z,77.31
2024-01-25T14:27:45.215Z,77.17
2024-01-25T14:30:12.625Z,76.90
2024-01-25T14:32:39.314Z,77.81
2024-01-25T14:35:06.261Z,77.61
2024-01-25T14:37:33.098Z,76.96
2024-01-25T14:40:09.292Z,77.84
2024-01-25T14:42:46.138Z,77.42
2024-01-25T14:45:12.690Z,77.30
2024-01-25T14:47:39.199Z,77.76
2024-01-25T14:50:06.681Z,78.05
2024-01-25T14:52:35.126Z,78.51
2024-01-25T14:55:03.027Z,77.68
2024-01-25T14:57:29.655Z,78.22
2024-01-25T14:59:56.054Z,78.15
2024-01-25T15:02:22.523Z,78.32
2024-01-25T15:04:48.963Z,78.12
2024-01-25T15:07:17.130Z,77.98
2024-01-25T15:09:43.594Z,78.90
2024-01-25T15:12:09.988Z,79.14
2024-01-25T15:14:36.430Z,79.20
2024-01-25T15:17:03.170Z,78.86
2024-01-25T15:19:29.902Z,78.52
2024-01-25T15:21:56.367Z,78.22
2024-01-25T15:24:22.778Z,78.30
2024-01-25T15:26:49.190Z,78.69
2024-01-25T15:29:15.859Z,78.06
2024-01-25T15:31:42.423Z,78.45
2024-01-25T15:34:09.045Z,78.02
2024-01-25T15:36:36.873Z,78.31
2024-01-25T15:39:04.676Z,78.10
2024-01-25T15:41:31.304Z,78.33
2024-01-25T15:44:01.180Z,78.23
2024-01-25T15:46:27.803Z,78.39
2024-01-25T15:48:55.720Z,78.34
2024-01-25T15:51:23.268Z,78.84
2024-01-25T15:53:49.909Z,78.56
2024-01-25T15:56:16.616Z,78.24
2024-01-25T15:58:43.066Z,78.46
2024-01-25T16:01:09.588Z,78.71
2024-01-25T16:03:36.346Z,78.52
2024-01-25T16:06:04.239Z,78.50
2024-01-25T16:08:30.665Z,78.58
2024-01-25T16:10:57.164Z,78.71
2024-01-25T16:13:24.002Z,79.16
2024-01-25T16:15:50.483Z,79.00
2024-01-25T16:18:18.634Z,78.71
2024-01-25T16:20:45.620Z,79.47
2024-01-25T16:23:14.666Z,79.71
2024-01-25T16:25:41.158Z,79.60
2024-01-25T16:28:07.694Z,79.23
2024-01-25T16:30:35.358Z,78.82
2024-01-25T16:33:01.935Z,78.65
2024-01-25T16:35:28.337Z,79.50
2024-01-25T16:37:54.787Z,79.54
2024-01-25T16:40:21.173Z,79.88
2024-01-25T16:42:48.200Z,79.42
2024-01-25T16:45:17.248Z,78.97
2024-01-25T16:47:43.836Z,79.28
2024-01-25T16:50:10.668Z,79.71
2024-01-25T16:52:37.338Z,79.60
2024-01-25T16:55:04.025Z,80.25
2024-01-25T16:57:30.719Z,80.43
2024-01-25T16:59:57.286Z,80.56
2024-01-25T17:02:23.794Z,79.97
2024-01-25T17:04:51.538Z,81.02
2024-01-25T17:07:19.855Z,81.07
2024-01-25T17:09:46.670Z,81.15
2024-01-25T17:12:16.200Z,81.41
2024-01-25T17:14:43.673Z,80.90
2024-01-25T17:17:13.730Z,81.22
2024-01-25T17:19:40.368Z,81.31
2024-01-25T17:22:08.579Z,81.66
2024-01-25T17:24:35.497Z,81.70
2024-01-25T17:27:01.996Z,81.31
2024-01-25T17:29:28.756Z,81.46
2024-01-25T17:31:55.673Z,81.15
2024-01-25T17:34:22.389Z,81.17
2024-01-25T17:36:48.970Z,80.45
2024-01-25T17:39:15.460Z,80.85
2024-01-25T17:41:42.607Z,81.05
2024-01-25T17:44:09.637Z,80.17
2024-01-25T17:46:36.196Z,80.48
2024-01-25T17:49:06.130Z,80.34
2024-01-25T17:51:32.998Z,80.07
2024-01-25T17:53:59.745Z,80.44
2024-01-25T17:56:26.165Z,80.16
2024-01-25T17:59:02.511Z,79.92
2024-01-25T18:01:29.450Z,80.11
2024-01-25T18:03:55.990Z,79.56
2024-01-25T18:06:22.650Z,79.91
2024-01-25T18:08:49.097Z,79.82
2024-01-25T18:11:16.745Z,79.95
2024-01-25T18:13:45.986Z,79.63
2024-01-25T18:16:12.504Z,79.54
2024-01-25T18:18:39.367Z,80.13
2024-01-25T18:21:06.254Z,79.74
2024-01-25T18:23:36.384Z,79.53
2024-01-25T18:26:03.700Z,79.46
2024-01-25T18:28:30.321Z,79.16
2024-01-25T18:30:58.743Z,79.31
2024-01-25T18:33:31.462Z,79.56
2024-01-25T18:35:58.007Z,79.38
2024-01-25T18:38:24.708Z,79.31
2024-01-25T18:40:51.423Z,78.78
2024-01-25T18:43:19.766Z,78.86
2024-01-25T18:45:47.940Z,78.81
2024-01-25T18:48:14.606Z,78.49
2024-01-25T18:50:41.250Z,78.61
2024-01-25T18:53:07.903Z,78.11
2024-01-25T18:55:36.990Z,78.39
2024-01-25T18:58:03.831Z,78.60
2024-01-25T19:00:30.705Z,78.22
2024-01-25T19:02:57.492Z,78.38
2024-01-25T19:05:27.415Z,78.35
2024-01-25T19:07:55.346Z,78.32
2024-01-25T19:10:24.422Z,78.43
2024-01-25T19:12:51.082Z,77.91
2024-01-25T19:15:21.276Z,78.47
2024-01-25T19:17:48.027Z,78.46
2024-01-25T19:20:14.816Z,78.35
2024-01-25T19:22:41.440Z,78.59
2024-01-25T19:25:08.593Z,78.21
2024-01-25T19:27:37.574Z,78.44
2024-01-25T19:30:04.479Z,78.53
2024-01-25T19:32:31.425Z,78.76
2024-01-25T19:34:58.214Z,78.68
2024-01-25T19:37:24.750Z,79.01
2024-01-25T19:39:51.320Z,79.29
2024-01-25T19:42:18.042Z,79.33
2024-01-25T19:44:44.887Z,79.70
2024-01-25T19:47:12.411Z,80.19
2024-01-25T19:49:39.086Z,80.12
2024-01-25T19:52:06.237Z,79.98
2024-01-25T19:54:35.103Z,80.95
2024-01-25T19:57:01.565Z,80.42
2024-01-25T19:59:28.303Z,80.32
2024-01-25T20:01:55.322Z,80.72
2024-01-25T20:04:22.248Z,81.07
2024-01-25T20:06:49.076Z,81.09
2024-01-25T20:09:15.741Z,80.66
2024-01-25T20:11:42.160Z,80.99
2024-01-25T20:14:09.427Z,81.38
2024-01-25T20:16:36.013Z,80.93
2024-01-25T20:19:02.524Z,81.15
2024-01-25T20:21:29.065Z,81.23
2024-01-25T20:23:56.052Z,81.49
2024-01-25T20:26:23.763Z,81.57
2024-01-25T20:28:50.413Z,81.63
2024-01-25T20:31:18.923Z,82.05
2024-01-25T20:33:45.996Z,81.71
2024-01-25T20:36:12.572Z,81.91
2024-01-25T20:38:39.015Z,81.90
2024-01-25T20:41:05.682Z,82.00
2024-01-25T20:43:32.087Z,81.84
2024-01-25T20:45:58.538Z,82.05
2024-01-25T20:48:25.193Z,81.97
2024-01-25T20:50:51.956Z,82.50
2024-01-25T20:53:19.549Z,82.04
2024-01-25T20:55:46.023Z,82.36
2024-01-25T20:58:12.471Z,83.12
2024-01-25T21:00:50.468Z,82.28
2024-01-25T21:03:19.572Z,83.01
2024-01-25T21:05:51.468Z,82.75
2024-01-25T21:08:27.981Z,83.56
2024-01-25T21:10:57.815Z,83.30
2024-01-25T21:13:24.627Z,84.09
2024-01-25T21:15:51.113Z,84.10
2024-01-25T21:18:17.737Z,83.81
2024-01-25T21:20:44.539Z,83.83
2024-01-25T21:23:11.070Z,83.82
2024-01-25T21:25:37.553Z,84.04
2024-01-25T21:28:04.468Z,84.11
2024-01-25T21:30:31.034Z,83.78
2024-01-25T21:32:57.540Z,84.65
2024-01-25T21:35:26.801Z,84.30
2024-01-25T21:37:53.229Z,84.81
2024-01-25T21:40:19.790Z,84.40
2024-01-25T21:42:50.592Z,84.16
2024-01-25T21:45:17.182Z,83.99
2024-01-25T21:47:43.859Z,84.65
2024-01-25T21:50:13.314Z,84.16
2024-01-25T21:52:41.058Z,85.21
2024-01-25T21:55:12.567Z,85.00
2024-01-25T21:57:47.958Z,84.41
2024-01-25T22:00:18.573Z,84.72
2024-01-25T22:02:46.693Z,84.93
2024-01-25T22:05:15.034Z,84.98
2024-01-25T22:07:41.948Z,84.80
2024-01-25T22:10:08.885Z,84.99
2024-01-25T22:12:35.610Z,84.88
2024-01-25T22:15:02.019Z,84.39
2024-01-25T22:17:28.674Z,84.43
2024-01-25T22:19:55.236Z,84.24
2024-01-25T22:22:21.915Z,84.55
2024-01-25T22:24:48.667Z,84.44
2024-01-25T22:27:15.123Z,84.43
2024-01-25T22:29:41.727Z,84.40
2024-01-25T22:32:08.193Z,84.77
2024-01-25T22:34:34.676Z,84.36
2024-01-25T22:37:01.678Z,84.46
2024-01-25T22:39:28.264Z,84.90
2024-01-25T22:41:54.729Z,85.31
2024-01-25T22:44:21.210Z,84.55
2024-01-25T22:46:56.306Z,84.74
2024-01-25T22:49:25.986Z,84.32
2024-01-25T22:51:52.601Z,84.15
2024-01-25T22:54:19.724Z,84.83
2024-01-25T22:56:49.931Z,84.63
2024-01-25T22:59:16.964Z,84.85
2024-01-25T23:01:43.713Z,84.92
2024-01-25T23:04:10.869Z,84.60
2024-01-25T23:06:37.384Z,84.59
2024-01-25T23:09:05.205Z,84.87
2024-01-25T23:11:32.495Z,84.58
2024-01-25T23:13:59.446Z,85.22
2024-01-25T23:16:26.160Z,84.26
2024-01-25T23:18:53.092Z,85.01
2024-01-25T23:21:20.059Z,85.21
2024-01-25T23:23:46.804Z,85.27
2024-01-25T23:26:13.920Z,84.69
2024-01-25T23:28:41.596Z,84.92
2024-01-25T23:31:08.270Z,84.49
2024-01-25T23:33:35.039Z,84.50
2024-01-25T23:36:01.576Z,84.08
2024-01-25T23:38:28.046Z,84.58
2024-01-25T23:40:54.524Z,84.39
2024-01-25T23:43:23.083Z,84.79
2024-01-25T23:45:49.858Z,84.41
2024-01-25T23:48:16.766Z,84.08
2024-01-25T23:50:43.507Z,84.91
2024-01-25T23:53:10.060Z,84.46
2024-01-25T23:55:36.479Z,84.41
2024-01-25T23:58:03.258Z,84.86
